createdAt,value
2018-03-27T00:00:27.415Z,995.46
2018-03-27T00:01:37.480Z,995.4
2018-03-27T00:02:47.024Z,995.43
2018-03-27T00:03:56.818Z,995.48
2018-03-27T00:05:06.883Z,995.47
2018-03-27T00:06:17.073Z,995.46
2018-03-27T00:07:27.139Z,995.43
2018-03-27T00:08:37.218Z,995.45
2018-03-27T00:09:47.326Z,995.47
2018-03-27T00:10:57.125Z,995.41
2018-03-27T00:12:07.198Z,995.43
2018-03-27T00:13:16.997Z,995.4
2018-03-27T00:14:27.054Z,995.42
2018-03-27T00:15:36.861Z,995.42
2018-03-27T00:16:46.677Z,995.45
2018-03-27T00:17:56.477Z,995.41
2018-03-27T00:19:06.017Z,995.41
2018-03-27T00:20:15.823Z,995.44
2018-03-27T00:21:25.903Z,995.44
2018-03-27T00:22:35.969Z,995.44
2018-03-27T00:23:46.019Z,995.46
2018-03-27T00:24:55.813Z,995.45
2018-03-27T00:26:05.899Z,995.49
2018-03-27T00:27:15.431Z,995.44
2018-03-27T00:28:25.498Z,995.49
2018-03-27T00:29:35.302Z,995.51
2018-03-27T00:30:45.096Z,995.48
2018-03-27T00:31:55.148Z,995.5
2018-03-27T00:33:05.287Z,995.48
2018-03-27T00:34:15.091Z,995.47
2018-03-27T00:35:24.632Z,995.47
2018-03-27T00:36:34.696Z,995.48
2018-03-27T00:37:44.814Z,995.44
2018-03-27T00:38:54.675Z,995.43
2018-03-27T00:40:04.480Z,995.41
2018-03-27T00:41:14.342Z,995.42
2018-03-27T00:42:24.162Z,995.45
2018-03-27T00:43:33.981Z,995.42
2018-03-27T00:44:43.792Z,995.4
2018-03-27T00:45:53.851Z,995.4
2018-03-27T00:47:03.911Z,995.38
2018-03-27T00:48:13.979Z,995.35
2018-03-27T00:49:24.032Z,995.34
2018-03-27T00:50:33.573Z,995.35
2018-03-27T00:51:43.373Z,995.36
2018-03-27T00:52:53.448Z,995.33
2018-03-27T00:54:03.523Z,995.37
2018-03-27T00:55:13.654Z,995.33
2018-03-27T00:56:23.777Z,995.29
2018-03-27T00:57:33.886Z,995.34
2018-03-27T00:58:43.949Z,995.39
2018-03-27T00:59:53.733Z,995.33
2018-03-27T01:01:03.555Z,995.39
2018-03-27T01:02:13.671Z,995.34
2018-03-27T01:03:23.755Z,995.39
2018-03-27T01:04:33.563Z,995.36
2018-03-27T01:05:43.635Z,995.34
2018-03-27T01:06:53.706Z,995.43
2018-03-27T01:08:03.911Z,995.37
2018-03-27T01:09:13.979Z,995.46
2018-03-27T01:10:23.781Z,995.39
2018-03-27T01:11:33.850Z,995.37
2018-03-27T01:12:43.637Z,995.42
2018-03-27T01:13:53.688Z,995.41
2018-03-27T01:15:03.494Z,995.4
2018-03-27T01:16:13.557Z,995.39
2018-03-27T01:17:23.628Z,995.4
2018-03-27T01:18:33.707Z,995.38
2018-03-27T01:19:43.826Z,995.44
2018-03-27T01:20:53.894Z,995.37
2018-03-27T01:22:03.672Z,995.39
2018-03-27T01:23:13.475Z,995.35
2018-03-27T01:24:23.011Z,995.38
2018-03-27T01:25:32.823Z,995.37
2018-03-27T01:26:42.896Z,995.36
2018-03-27T01:27:52.705Z,995.36
2018-03-27T01:29:02.764Z,995.35
2018-03-27T01:30:12.818Z,995.31
2018-03-27T01:31:22.893Z,995.35
2018-03-27T01:32:32.425Z,995.34
2018-03-27T01:33:42.221Z,995.29
2018-03-27T01:34:52.045Z,995.32
2018-03-27T01:36:01.848Z,995.3
2018-03-27T01:37:11.918Z,995.28
2018-03-27T01:38:22.056Z,995.29
2018-03-27T01:39:31.866Z,995.26
2018-03-27T01:40:41.938Z,995.3
2018-03-27T01:41:51.740Z,995.28
2018-03-27T01:43:01.556Z,995.28
2018-03-27T01:44:11.088Z,995.33
2018-03-27T01:45:20.889Z,995.25
2018-03-27T01:46:30.967Z,995.25
2018-03-27T01:47:40.502Z,995.26
2018-03-27T01:48:50.313Z,995.26
2018-03-27T01:50:00.120Z,995.29
2018-03-27T01:51:09.920Z,995.31
2018-03-27T01:52:19.990Z,995.31
2018-03-27T01:53:30.047Z,995.33
2018-03-27T01:54:39.851Z,995.29
2018-03-27T01:55:49.377Z,995.3
2018-03-27T01:56:58.919Z,995.25
2018-03-27T01:58:08.989Z,995.27
2018-03-27T01:59:18.787Z,995.31
2018-03-27T02:00:28.850Z,995.29
2018-03-27T02:01:38.380Z,995.28
2018-03-27T02:02:48.188Z,995.3
2018-03-27T02:03:57.698Z,995.34
2018-03-27T02:05:07.519Z,995.29
2018-03-27T02:06:17.766Z,995.28
2018-03-27T02:07:27.832Z,995.28
2018-03-27T02:08:37.632Z,995.26
2018-03-27T02:09:47.683Z,995.25
2018-03-27T02:10:57.746Z,995.27
2018-03-27T02:12:07.824Z,995.29
2018-03-27T02:13:17.882Z,995.24
2018-03-27T02:14:27.680Z,995.28
2018-03-27T02:15:37.742Z,995.29
2018-03-27T02:16:47.798Z,995.29
2018-03-27T02:17:57.874Z,995.28
2018-03-27T02:19:07.945Z,995.27
2018-03-27T02:20:17.755Z,995.26
2018-03-27T02:21:27.560Z,995.22
2018-03-27T02:22:37.637Z,995.27
2018-03-27T02:23:47.438Z,995.29
2018-03-27T02:24:56.983Z,995.24
2018-03-27T02:26:06.532Z,995.29
2018-03-27T02:27:16.604Z,995.24
2018-03-27T02:28:26.679Z,995.27
2018-03-27T02:29:36.789Z,995.25
2018-03-27T02:30:46.848Z,995.28
2018-03-27T02:31:56.944Z,995.26
2018-03-27T02:33:07.027Z,995.26
2018-03-27T02:34:17.130Z,995.27
2018-03-27T02:35:27.305Z,995.3
2018-03-27T02:36:37.364Z,995.25
2018-03-27T02:37:47.174Z,995.25
2018-03-27T02:38:56.975Z,995.3
2018-03-27T02:40:07.058Z,995.29
2018-03-27T02:41:16.870Z,995.32
2018-03-27T02:42:26.941Z,995.28
2018-03-27T02:43:36.754Z,995.27
2018-03-27T02:44:46.579Z,995.25
2018-03-27T02:45:56.417Z,995.3
2018-03-27T02:47:06.560Z,995.32
2018-03-27T02:48:16.398Z,995.26
2018-03-27T02:49:26.475Z,995.27
2018-03-27T02:50:36.285Z,995.3
2018-03-27T02:51:46.084Z,995.25
2018-03-27T02:52:55.647Z,995.27
2018-03-27T02:54:05.460Z,995.29
2018-03-27T02:55:15.533Z,995.3
2018-03-27T02:56:25.638Z,995.28
2018-03-27T02:57:35.459Z,995.31
2018-03-27T02:58:45.659Z,995.26
2018-03-27T02:59:55.733Z,995.26
2018-03-27T03:01:05.789Z,995.28
2018-03-27T03:02:15.863Z,995.29
2018-03-27T03:03:25.970Z,995.28
2018-03-27T03:04:36.114Z,995.34
2018-03-27T03:05:45.936Z,995.32
2018-03-27T03:37:37.559Z,995.3
2018-03-27T03:38:46.815Z,995.32
2018-03-27T03:39:56.876Z,995.32
2018-03-27T03:41:06.172Z,995.31
2018-03-27T03:42:16.229Z,995.32
2018-03-27T03:43:26.327Z,995.31
2018-03-27T03:44:36.120Z,995.27
2018-03-27T03:45:45.914Z,995.29
2018-03-27T03:46:55.731Z,995.31
2018-03-27T03:48:05.265Z,995.29
2018-03-27T03:49:15.323Z,995.25
2018-03-27T03:50:25.125Z,995.25
2018-03-27T03:51:34.919Z,995.19
2018-03-27T03:52:44.972Z,995.24
2018-03-27T03:53:54.765Z,995.29
2018-03-27T03:55:04.878Z,995.23
2018-03-27T03:56:14.396Z,995.25
2018-03-27T03:57:24.176Z,995.2
2018-03-27T03:58:34.248Z,995.21
2018-03-27T03:59:44.327Z,995.26
2018-03-27T04:00:53.879Z,995.27
2018-03-27T04:02:03.941Z,995.21
2018-03-27T04:03:13.988Z,995.29
2018-03-27T04:04:23.798Z,995.28
2018-03-27T04:05:33.867Z,995.29
2018-03-27T04:06:43.978Z,995.26
2018-03-27T04:07:53.764Z,995.25
2018-03-27T04:09:03.303Z,995.27
2018-03-27T04:10:13.112Z,995.29
2018-03-27T04:11:22.985Z,995.32
2018-03-27T04:12:33.108Z,995.34
2018-03-27T04:13:43.184Z,995.36
2018-03-27T04:14:53.260Z,995.42
2018-03-27T04:16:03.325Z,995.41
2018-03-27T04:17:13.112Z,995.38
2018-03-27T04:18:22.974Z,995.38
2018-03-27T04:19:32.770Z,995.39
2018-03-27T04:20:42.827Z,995.41
2018-03-27T04:21:52.620Z,995.43
2018-03-27T04:23:02.662Z,995.44
2018-03-27T04:24:12.454Z,995.43
2018-03-27T04:25:22.246Z,995.45
2018-03-27T04:26:32.373Z,995.45
2018-03-27T04:27:42.176Z,995.51
2018-03-27T04:28:52.230Z,995.47
2018-03-27T04:30:02.301Z,995.51
2018-03-27T04:31:12.106Z,995.51
2018-03-27T04:32:22.180Z,995.51
2018-03-27T04:33:31.973Z,995.52
2018-03-27T04:34:42.046Z,995.5
2018-03-27T04:35:51.839Z,995.48
2018-03-27T04:37:01.665Z,995.47
2018-03-27T04:38:11.728Z,995.51
2018-03-27T04:39:21.282Z,995.54
2018-03-27T04:40:31.078Z,995.55
2018-03-27T04:41:41.299Z,995.55
2018-03-27T04:42:51.385Z,995.58
2018-03-27T04:44:01.466Z,995.55
2018-03-27T04:45:11.531Z,995.59
2018-03-27T04:46:21.658Z,995.56
2018-03-27T04:47:31.745Z,995.58
2018-03-27T04:48:41.561Z,995.57
2018-03-27T04:49:51.087Z,995.56
2018-03-27T04:51:00.895Z,995.58
2018-03-27T04:52:10.696Z,995.61
2018-03-27T04:53:20.492Z,995.58
2018-03-27T04:54:30.558Z,995.62
2018-03-27T04:55:40.091Z,995.65
2018-03-27T04:56:49.623Z,995.63
2018-03-27T04:57:59.437Z,995.63
2018-03-27T04:59:09.296Z,995.66
2018-03-27T05:00:19.102Z,995.67
2018-03-27T05:01:28.883Z,995.67
2018-03-27T05:02:38.952Z,995.74
2018-03-27T05:03:49.009Z,995.67
2018-03-27T05:04:59.066Z,995.74
2018-03-27T05:06:08.598Z,995.7
2018-03-27T05:07:18.405Z,995.73
2018-03-27T05:08:27.946Z,995.71
2018-03-27T05:09:38.042Z,995.74
2018-03-27T05:10:48.104Z,995.68
2018-03-27T05:11:57.912Z,995.67
2018-03-27T05:13:07.532Z,995.7
2018-03-27T05:14:17.056Z,995.73
2018-03-27T05:15:26.826Z,995.71
2018-03-27T05:16:36.636Z,995.68
2018-03-27T05:17:46.698Z,995.72
2018-03-27T05:18:56.779Z,995.74
2018-03-27T05:20:06.833Z,995.79
2018-03-27T05:21:16.927Z,995.76
2018-03-27T05:22:26.987Z,995.81
2018-03-27T05:23:37.059Z,995.76
2018-03-27T05:24:46.861Z,995.76
2018-03-27T05:25:56.920Z,995.75
2018-03-27T05:27:06.990Z,995.78
2018-03-27T05:28:17.063Z,995.79
2018-03-27T05:29:27.134Z,995.78
2018-03-27T05:30:37.194Z,995.78
2018-03-27T05:31:47.259Z,995.81
2018-03-27T05:32:57.316Z,995.81
2018-03-27T05:34:07.425Z,995.74
2018-03-27T05:35:17.497Z,995.83
2018-03-27T05:36:27.574Z,995.76
2018-03-27T05:37:37.655Z,995.76
2018-03-27T05:38:47.192Z,995.75
2018-03-27T05:39:57.268Z,995.78
2018-03-27T05:41:07.335Z,995.77
2018-03-27T05:42:17.413Z,995.78
2018-03-27T05:43:27.206Z,995.82
2018-03-27T05:44:36.729Z,995.81
2018-03-27T05:45:46.791Z,995.81
2018-03-27T05:46:56.366Z,995.8
2018-03-27T05:48:06.202Z,995.79
2018-03-27T05:49:16.027Z,995.82
2018-03-27T05:50:25.829Z,995.85
2018-03-27T05:51:35.942Z,995.87
2018-03-27T05:52:46.077Z,995.85
2018-03-27T05:53:56.154Z,995.86
2018-03-27T05:55:05.961Z,995.91
2018-03-27T05:56:16.036Z,995.89
2018-03-27T05:57:26.100Z,995.92
2018-03-27T05:58:35.651Z,995.89
2018-03-27T05:59:45.186Z,995.91
2018-03-27T06:00:55.244Z,995.96
2018-03-27T06:02:05.302Z,995.95
2018-03-27T06:03:15.375Z,996
2018-03-27T06:04:25.181Z,995.95
2018-03-27T06:05:35.242Z,995.97
2018-03-27T06:06:45.299Z,995.99
2018-03-27T06:07:55.100Z,996
2018-03-27T06:09:04.901Z,996.04
2018-03-27T06:10:14.977Z,996.03
2018-03-27T06:11:25.047Z,996.04
2018-03-27T06:12:34.842Z,996.01
2018-03-27T06:13:44.389Z,996.06
2018-03-27T06:14:54.197Z,996.06
2018-03-27T06:16:04.282Z,996.05
2018-03-27T06:17:14.068Z,996.05
2018-03-27T06:18:23.883Z,996.07
2018-03-27T06:19:33.683Z,996.05
2018-03-27T06:20:43.808Z,996.06
2018-03-27T06:21:53.873Z,996.09
2018-03-27T06:23:03.698Z,996.08
2018-03-27T06:24:13.513Z,996.09
2018-03-27T06:25:23.586Z,996.08
2018-03-27T06:26:33.449Z,996.08
2018-03-27T06:27:43.028Z,996.12
2018-03-27T06:28:53.132Z,996.14
2018-03-27T06:30:02.935Z,996.14
2018-03-27T06:31:12.731Z,996.15
2018-03-27T06:32:22.843Z,996.19
2018-03-27T06:33:32.895Z,996.19
2018-03-27T06:34:42.983Z,996.17
2018-03-27T06:35:52.777Z,996.21
2018-03-27T06:37:02.854Z,996.2
2018-03-27T06:38:12.925Z,996.22
2018-03-27T06:39:22.714Z,996.27
2018-03-27T06:40:32.855Z,996.27
2018-03-27T06:41:42.681Z,996.25
2018-03-27T06:42:52.743Z,996.25
2018-03-27T06:44:02.816Z,996.26
2018-03-27T06:45:12.915Z,996.27
2018-03-27T06:46:22.718Z,996.31
2018-03-27T06:47:32.798Z,996.26
2018-03-27T06:48:42.089Z,996.27
2018-03-27T06:49:52.159Z,996.35
2018-03-27T06:51:01.956Z,996.31
2018-03-27T06:52:12.030Z,996.33
2018-03-27T06:53:22.080Z,996.35
2018-03-27T06:54:31.882Z,996.4
2018-03-27T06:55:41.423Z,996.35
2018-03-27T06:56:50.952Z,996.35
2018-03-27T06:58:00.750Z,996.34
2018-03-27T06:59:10.811Z,996.34
2018-03-27T07:00:20.885Z,996.36
2018-03-27T07:01:30.978Z,996.34
2018-03-27T07:02:41.122Z,996.38
2018-03-27T07:03:51.283Z,996.39
2018-03-27T07:05:01.434Z,996.37
2018-03-27T07:06:11.647Z,996.41
2018-03-27T07:07:21.807Z,996.41
2018-03-27T07:08:31.376Z,996.43
2018-03-27T07:09:41.173Z,996.43
2018-03-27T07:10:51.035Z,996.42
2018-03-27T07:12:01.165Z,996.45
2018-03-27T07:13:11.323Z,996.4
2018-03-27T07:14:21.453Z,996.42
2018-03-27T07:15:31.673Z,996.47
2018-03-27T07:16:41.787Z,996.43
2018-03-27T07:17:51.933Z,996.43
2018-03-27T07:19:01.771Z,996.43
2018-03-27T07:20:11.930Z,996.47
2018-03-27T07:21:22.145Z,996.47
2018-03-27T07:22:32.214Z,996.43
2018-03-27T07:23:42.290Z,996.48
2018-03-27T07:24:52.332Z,996.45
2018-03-27T07:26:02.425Z,996.43
2018-03-27T07:27:12.492Z,996.46
2018-03-27T07:28:22.557Z,996.47
2018-03-27T07:29:32.430Z,996.47
2018-03-27T07:30:42.275Z,996.46
2018-03-27T07:31:52.092Z,996.5
2018-03-27T07:33:02.156Z,996.52
2018-03-27T07:34:12.252Z,996.55
2018-03-27T07:35:22.057Z,996.53
2018-03-27T07:36:31.865Z,996.53
2018-03-27T07:37:41.408Z,996.54
2018-03-27T07:38:51.469Z,996.52
2018-03-27T07:40:01.464Z,996.56
2018-03-27T07:41:11.552Z,996.51
2018-03-27T07:42:21.634Z,996.53
2018-03-27T07:43:31.713Z,996.55
2018-03-27T07:44:41.781Z,996.55
2018-03-27T07:45:51.878Z,996.56
2018-03-27T07:47:01.947Z,996.58
2018-03-27T07:48:12.011Z,996.55
2018-03-27T07:49:22.142Z,996.54
2018-03-27T07:50:32.343Z,996.51
2018-03-27T07:51:42.424Z,996.53
2018-03-27T07:52:52.596Z,996.55
2018-03-27T07:54:02.968Z,996.55
2018-03-27T07:55:13.071Z,996.56
2018-03-27T07:56:23.336Z,996.58
2018-03-27T07:57:33.166Z,996.59
2018-03-27T07:58:43.229Z,996.59
2018-03-27T07:59:53.602Z,996.6
2018-03-27T08:01:03.740Z,996.55
2018-03-27T08:02:13.823Z,996.61
2018-03-27T08:03:23.650Z,996.6
2018-03-27T08:04:33.604Z,996.57
2018-03-27T08:05:43.698Z,996.6
2018-03-27T08:06:53.785Z,996.61
2018-03-27T08:08:03.869Z,996.63
2018-03-27T08:09:13.982Z,996.59
2018-03-27T08:10:24.048Z,996.65
2018-03-27T08:11:33.864Z,996.58
2018-03-27T08:12:43.950Z,996.65
2018-03-27T08:13:54.040Z,996.61
2018-03-27T08:15:04.106Z,996.59
2018-03-27T08:16:14.190Z,996.56
2018-03-27T08:17:24.048Z,996.63
2018-03-27T08:18:34.188Z,996.56
2018-03-27T08:19:44.341Z,996.64
2018-03-27T08:20:54.382Z,996.57
2018-03-27T08:22:04.464Z,996.56
2018-03-27T08:23:14.805Z,996.57
2018-03-27T08:24:24.904Z,996.59
2018-03-27T08:25:35.503Z,996.63
2018-03-27T08:26:45.516Z,996.63
2018-03-27T08:27:55.812Z,996.6
2018-03-27T08:29:06.089Z,996.63
2018-03-27T08:30:16.361Z,996.59
2018-03-27T08:31:26.513Z,996.58
2018-03-27T08:32:36.539Z,996.63
2018-03-27T08:33:46.654Z,996.57
2018-03-27T08:34:56.746Z,996.57
2018-03-27T08:36:07.186Z,996.57
2018-03-27T08:37:17.716Z,996.54
2018-03-27T08:44:56.238Z,996.49
2018-03-27T08:46:06.068Z,996.52
2018-03-27T08:47:16.165Z,996.54
2018-03-27T08:48:26.237Z,996.54
2018-03-27T08:49:36.111Z,996.56
2018-03-27T08:50:46.184Z,996.57
2018-03-27T08:51:55.723Z,996.58
2018-03-27T08:53:05.820Z,996.56
2018-03-27T08:54:15.918Z,996.56
2018-03-27T08:55:25.995Z,996.58
2018-03-27T08:56:36.147Z,996.52
2018-03-27T08:57:45.730Z,996.58
2018-03-27T08:58:55.533Z,996.62
2018-03-27T09:00:05.621Z,996.64
2018-03-27T09:01:15.433Z,996.6
2018-03-27T09:02:25.514Z,996.6
2018-03-27T09:03:35.583Z,996.61
2018-03-27T09:04:45.571Z,996.6
2018-03-27T09:05:55.636Z,996.62
2018-03-27T09:07:05.525Z,996.64
2018-03-27T09:08:15.607Z,996.56
2018-03-27T09:09:25.682Z,996.7
2018-03-27T09:10:35.777Z,996.64
2018-03-27T09:11:45.591Z,996.63
2018-03-27T09:12:55.676Z,996.59
2018-03-27T09:14:05.255Z,996.6
2018-03-27T09:15:14.872Z,996.58
2018-03-27T09:16:24.421Z,996.6
2018-03-27T09:17:34.237Z,996.59
2018-03-27T09:18:44.060Z,996.63
2018-03-27T09:19:53.868Z,996.66
2018-03-27T09:21:03.446Z,996.62
2018-03-27T09:22:13.513Z,996.67
2018-03-27T09:23:23.683Z,996.65
2018-03-27T09:24:33.493Z,996.69
2018-03-27T09:25:43.573Z,996.7
2018-03-27T09:26:53.655Z,996.69
2018-03-27T09:28:03.754Z,996.64
2018-03-27T09:29:13.560Z,996.63
2018-03-27T09:30:23.692Z,996.65
2018-03-27T09:31:33.769Z,996.65
2018-03-27T09:32:43.840Z,996.63
2018-03-27T09:33:53.920Z,996.65
2018-03-27T09:35:03.740Z,996.64
2018-03-27T09:36:13.566Z,996.69
2018-03-27T09:37:23.434Z,996.62
2018-03-27T09:38:33.514Z,996.66
2018-03-27T09:39:43.584Z,996.67
2018-03-27T09:40:53.426Z,996.68
2018-03-27T09:42:03.511Z,996.66
2018-03-27T09:43:13.070Z,996.65
2018-03-27T09:44:23.119Z,996.63
2018-03-27T09:45:32.770Z,996.63
2018-03-27T09:46:42.966Z,996.65
2018-03-27T09:47:52.832Z,996.62
2018-03-27T09:49:02.960Z,996.61
2018-03-27T09:50:13.104Z,996.6
2018-03-27T09:51:23.216Z,996.61
2018-03-27T09:52:33.305Z,996.58
2018-03-27T09:53:43.117Z,996.58
2018-03-27T09:54:52.941Z,996.58
2018-03-27T09:56:02.759Z,996.56
2018-03-27T09:57:12.568Z,996.55
2018-03-27T09:58:22.373Z,996.53
2018-03-27T09:59:32.587Z,996.53
2018-03-27T10:00:42.398Z,996.54
2018-03-27T10:01:52.216Z,996.51
2018-03-27T10:03:02.057Z,996.49
2018-03-27T10:04:12.158Z,996.44
2018-03-27T10:05:21.715Z,996.45
2018-03-27T10:06:31.804Z,996.39
2018-03-27T10:07:41.626Z,996.43
2018-03-27T10:08:51.511Z,996.42
2018-03-27T10:10:01.406Z,996.34
2018-03-27T10:11:11.260Z,996.38
2018-03-27T10:12:20.825Z,996.33
2018-03-27T10:13:30.918Z,996.39
2018-03-27T10:14:40.741Z,996.38
2018-03-27T10:15:50.561Z,996.23
2018-03-27T10:17:00.525Z,996.22
2018-03-27T10:18:10.347Z,996.25
2018-03-27T10:19:20.174Z,996.23
2018-03-27T10:20:30.262Z,996.3
2018-03-27T10:21:40.086Z,996.26
2018-03-27T10:22:49.695Z,996.28
2018-03-27T10:23:59.248Z,996.28
2018-03-27T10:25:09.333Z,996.21
2018-03-27T10:26:19.151Z,996.27
2018-03-27T10:27:29.010Z,996.28
2018-03-27T10:28:38.856Z,996.26
2018-03-27T10:29:48.673Z,996.25
2018-03-27T10:30:58.747Z,996.27
2018-03-27T10:32:08.830Z,996.29
2018-03-27T10:33:18.897Z,996.31
2018-03-27T10:34:28.608Z,996.25
2018-03-27T10:35:38.718Z,996.28
2018-03-27T10:36:48.547Z,996.31
2018-03-27T10:37:58.897Z,996.25
2018-03-27T10:39:08.990Z,996.29
2018-03-27T10:40:19.131Z,996.31
2018-03-27T10:41:29.197Z,996.34
2018-03-27T10:42:39.006Z,996.34
2018-03-27T10:43:49.091Z,996.35
2018-03-27T10:44:58.905Z,996.31
2018-03-27T10:46:09.017Z,996.34
2018-03-27T10:47:18.846Z,996.26
2018-03-27T10:48:28.675Z,996.32
2018-03-27T10:49:38.784Z,996.26
2018-03-27T10:50:48.879Z,996.24
2018-03-27T10:51:58.684Z,996.26
2018-03-27T10:53:08.500Z,996.2
2018-03-27T10:54:18.399Z,996.23
2018-03-27T10:55:28.217Z,996.17
2018-03-27T10:56:38.321Z,996.17
2018-03-27T10:57:48.145Z,996.22
2018-03-27T10:58:57.975Z,996.21
2018-03-27T11:00:07.779Z,996.08
2018-03-27T11:01:17.610Z,996.13
2018-03-27T11:02:27.703Z,996.19
2018-03-27T11:03:37.527Z,996.19
2018-03-27T11:04:47.122Z,996.14
2018-03-27T11:05:56.981Z,996.14
2018-03-27T11:07:06.797Z,996.1
2018-03-27T11:08:16.618Z,996.11
2018-03-27T11:09:26.723Z,996.02
2018-03-27T11:10:36.261Z,996.05
2018-03-27T11:11:46.088Z,996.09
2018-03-27T11:12:56.245Z,996.1
2018-03-27T11:14:06.049Z,996.08
2018-03-27T11:15:15.865Z,996.08
2018-03-27T11:16:25.659Z,996.14
2018-03-27T11:17:35.487Z,996.1
2018-03-27T11:18:45.601Z,996.11
2018-03-27T11:19:55.423Z,996.19
2018-03-27T11:21:05.518Z,996.12
2018-03-27T11:22:15.600Z,996.09
2018-03-27T11:23:25.678Z,996.19
2018-03-27T11:24:35.768Z,996.2
2018-03-27T11:25:45.846Z,996.09
2018-03-27T11:26:55.394Z,996.1
2018-03-27T11:28:05.229Z,996.15
2018-03-27T11:29:15.085Z,996.21
2018-03-27T11:30:25.062Z,996.19
2018-03-27T11:31:35.405Z,996.23
2018-03-27T11:32:45.502Z,996.19
2018-03-27T11:33:55.312Z,996.16
2018-03-27T11:35:05.135Z,996.19
2018-03-27T11:36:14.949Z,996.26
2018-03-27T11:37:25.038Z,996.19
2018-03-27T11:38:34.625Z,996.16
2018-03-27T11:39:44.726Z,996.14
2018-03-27T11:40:54.818Z,996.17
2018-03-27T11:42:04.914Z,996.15
2018-03-27T11:43:15.244Z,996.08
2018-03-27T11:44:25.092Z,996.13
2018-03-27T11:45:35.179Z,996.11
2018-03-27T11:46:45.340Z,996.07
2018-03-27T11:47:55.168Z,996.09
2018-03-27T11:49:05.269Z,996.1
2018-03-27T11:50:15.173Z,996.12
2018-03-27T11:51:24.990Z,996.08
2018-03-27T11:52:35.082Z,996.09
2018-03-27T11:53:44.916Z,996.1
2018-03-27T11:54:55.005Z,996.04
2018-03-27T11:56:04.566Z,996.03
2018-03-27T11:57:14.667Z,996.02
2018-03-27T11:58:24.499Z,996.02
2018-03-27T11:59:34.313Z,995.91
2018-03-27T12:00:44.420Z,995.95
2018-03-27T12:01:54.228Z,995.93
2018-03-27T12:03:04.043Z,995.99
2018-03-27T12:04:14.119Z,995.95
2018-03-27T12:05:24.203Z,995.95
2018-03-27T12:06:34.036Z,995.97
2018-03-27T12:07:43.320Z,995.92
2018-03-27T12:08:53.139Z,995.93
2018-03-27T12:10:02.751Z,995.93
2018-03-27T12:11:12.817Z,995.97
2018-03-27T12:12:22.914Z,995.95
2018-03-27T12:13:32.732Z,995.86
2018-03-27T12:14:42.548Z,995.92
2018-03-27T12:15:52.363Z,995.95
2018-03-27T12:17:02.482Z,995.93
2018-03-27T12:18:12.018Z,995.9
2018-03-27T12:19:21.575Z,995.91
2018-03-27T12:20:31.383Z,995.92
2018-03-27T12:21:41.243Z,995.9
2018-03-27T12:22:51.333Z,995.86
2018-03-27T12:24:00.928Z,995.88
2018-03-27T12:25:10.498Z,995.86
2018-03-27T12:26:20.610Z,995.87
2018-03-27T12:27:30.481Z,995.85
2018-03-27T12:28:40.314Z,995.84
2018-03-27T12:29:49.859Z,995.8
2018-03-27T12:30:59.966Z,995.81
2018-03-27T12:32:09.774Z,995.83
2018-03-27T12:33:19.842Z,995.81
2018-03-27T12:34:29.651Z,995.76
2018-03-27T12:35:39.464Z,995.72
2018-03-27T12:36:49.038Z,995.72
2018-03-27T12:37:58.964Z,995.68
2018-03-27T12:39:09.106Z,995.65
2018-03-27T12:40:18.673Z,995.61
2018-03-27T12:41:28.490Z,995.59
2018-03-27T12:42:38.324Z,995.59
2018-03-27T12:43:48.396Z,995.55
2018-03-27T12:44:58.496Z,995.49
2018-03-27T12:46:08.326Z,995.52
2018-03-27T12:47:18.155Z,995.52
2018-03-27T12:48:27.989Z,995.5
2018-03-27T12:49:37.809Z,995.47
2018-03-27T12:50:47.684Z,995.44
2018-03-27T12:51:57.498Z,995.45
2018-03-27T12:53:07.558Z,995.43
2018-03-27T12:54:17.836Z,995.42
2018-03-27T12:55:27.934Z,995.37
2018-03-27T12:56:37.484Z,995.36
2018-03-27T12:57:47.040Z,995.36
2018-03-27T12:58:56.604Z,995.32
2018-03-27T13:00:06.547Z,995.36
2018-03-27T13:01:16.616Z,995.37
2018-03-27T13:02:26.504Z,995.36
2018-03-27T13:03:36.308Z,995.32
2018-03-27T13:04:46.386Z,995.25
2018-03-27T13:05:56.467Z,995.28
2018-03-27T13:07:06.547Z,995.3
2018-03-27T13:08:16.683Z,995.33
2018-03-27T13:09:26.532Z,995.29
2018-03-27T13:10:36.634Z,995.3
2018-03-27T13:11:46.232Z,995.3
2018-03-27T13:12:55.909Z,995.27
2018-03-27T13:14:05.795Z,995.26
2018-03-27T13:15:15.341Z,995.28
2018-03-27T13:16:25.164Z,995.2
2018-03-27T13:17:35.271Z,995.19
2018-03-27T13:18:45.161Z,995.16
2018-03-27T13:19:55.338Z,995.19
2018-03-27T13:21:04.648Z,995.2
2018-03-27T13:22:14.469Z,995.17
2018-03-27T13:23:24.320Z,995.15
2018-03-27T13:24:34.665Z,995.2
2018-03-27T13:25:44.478Z,995.14
2018-03-27T13:26:54.379Z,995.13
2018-03-27T13:28:04.449Z,995.1
2018-03-27T13:29:14.524Z,995.13
2018-03-27T13:30:24.615Z,995.08
2018-03-27T13:31:34.725Z,995.1
2018-03-27T13:32:44.812Z,995.09
2018-03-27T13:33:54.873Z,995.08
2018-03-27T13:35:04.962Z,995.07
2018-03-27T13:36:14.819Z,995.06
2018-03-27T13:37:24.426Z,995.12
2018-03-27T13:38:33.994Z,995.03
2018-03-27T13:39:44.090Z,995.03
2018-03-27T13:40:54.461Z,995.05
2018-03-27T13:42:05.597Z,995.03
2018-03-27T13:43:15.446Z,994.98
2018-03-27T13:44:25.560Z,994.94
2018-03-27T13:45:35.761Z,994.98
2018-03-27T13:46:48.806Z,994.95
2018-03-27T13:48:03.648Z,994.99
2018-03-27T13:49:14.825Z,995
2018-03-27T13:50:28.020Z,994.99
2018-03-27T13:51:41.437Z,994.96
2018-03-27T13:52:52.385Z,994.95
2018-03-27T13:54:02.521Z,994.94
2018-03-27T13:55:12.602Z,994.93
2018-03-27T13:56:22.437Z,994.91
2018-03-27T13:57:32.263Z,994.94
2018-03-27T13:58:42.367Z,994.94
2018-03-27T13:59:52.189Z,994.93
2018-03-27T14:01:02.095Z,994.94
2018-03-27T14:02:12.175Z,994.93
2018-03-27T14:03:22.001Z,994.92
2018-03-27T14:04:31.806Z,994.91
2018-03-27T14:05:41.365Z,994.96
2018-03-27T14:06:51.472Z,994.93
2018-03-27T14:08:01.547Z,994.93
2018-03-27T14:09:11.130Z,994.95
2018-03-27T14:10:20.981Z,994.97
2018-03-27T14:11:30.529Z,994.96
2018-03-27T14:12:40.090Z,994.96
2018-03-27T14:13:50.185Z,994.96
2018-03-27T14:15:00.205Z,995.1
2018-03-27T14:16:10.335Z,995.13
2018-03-27T14:17:20.677Z,995.14
2018-03-27T14:18:30.817Z,995.15
2018-03-27T14:19:40.662Z,995.19
2018-03-27T14:20:50.777Z,995.17
2018-03-27T14:22:00.864Z,995.14
2018-03-27T14:23:10.705Z,995.08
2018-03-27T14:24:20.321Z,995.05
2018-03-27T14:25:29.599Z,995.02
2018-03-27T14:26:39.426Z,995.09
2018-03-27T14:27:49.516Z,995.11
2018-03-27T14:28:59.321Z,995.14
2018-03-27T14:30:09.161Z,995.17
2018-03-27T14:31:18.738Z,995.24
2018-03-27T14:32:28.816Z,995.28
2018-03-27T14:33:38.906Z,995.23
2018-03-27T14:34:48.735Z,995.32
2018-03-27T14:35:58.557Z,995.31
2018-03-27T14:37:08.453Z,995.37
2018-03-27T14:38:18.660Z,995.34
2018-03-27T14:39:28.560Z,995.32
2018-03-27T14:40:38.668Z,995.35
2018-03-27T14:41:48.534Z,995.3
2018-03-27T14:42:58.633Z,995.39
2018-03-27T14:44:08.716Z,995.43
2018-03-27T14:45:18.543Z,995.43
2018-03-27T14:46:28.740Z,995.47
2018-03-27T14:47:38.821Z,995.49
2018-03-27T14:48:48.927Z,995.53
2018-03-27T14:49:58.491Z,995.62
2018-03-27T14:51:08.588Z,995.57
2018-03-27T14:52:18.427Z,995.68
2018-03-27T14:53:28.616Z,995.73
2018-03-27T14:54:38.886Z,995.75
2018-03-27T14:55:49.395Z,995.81
2018-03-27T14:56:59.487Z,995.8
2018-03-27T14:58:09.322Z,995.82
2018-03-27T14:59:19.180Z,995.87
2018-03-27T15:00:29.620Z,995.86
2018-03-27T15:01:38.930Z,995.91
2018-03-27T15:02:48.471Z,995.94
2018-03-27T15:03:58.747Z,995.91
2018-03-27T15:05:09.079Z,995.94
2018-03-27T15:06:19.165Z,995.94
2018-03-27T15:07:29.269Z,995.98
2018-03-27T15:08:39.348Z,995.99
2018-03-27T15:09:49.456Z,995.98
2018-03-27T15:10:59.607Z,995.95
2018-03-27T15:12:09.673Z,995.93